createdAt,value
2023-03-31T00:01:04.597Z,101107.72
2023-03-31T00:03:34.301Z,101118.19
2023-03-31T00:06:01.904Z,101109.31
2023-03-31T00:08:35.465Z,101104.03
2023-03-31T00:11:07.127Z,101108.84
2023-03-31T00:13:35.445Z,101099.88
2023-03-31T00:16:06.490Z,101106.13
2023-03-31T00:18:34.564Z,101097.13
2023-03-31T00:21:14.580Z,101089.06
2023-03-31T00:23:42.300Z,101085.38
2023-03-31T00:26:09.795Z,101076.75
2023-03-31T00:28:37.092Z,101076.25
2023-03-31T00:31:04.465Z,101074.66
2023-03-31T00:33:31.816Z,101077.53
2023-03-31T00:36:02.136Z,101071.44
2023-03-31T00:38:30.216Z,101075.16
2023-03-31T00:40:58.143Z,101062.97
2023-03-31T00:43:33.184Z,101066.97
2023-03-31T00:46:15.484Z,101066.19
2023-03-31T00:48:57.733Z,101061.19
2023-03-31T00:51:31.970Z,101055.75
2023-03-31T00:54:06.100Z,101047.72
2023-03-31T00:56:37.689Z,101046.44
2023-03-31T00:59:08.819Z,101044.00
2023-03-31T01:01:39.492Z,101052.19
2023-03-31T01:04:09.727Z,101048.03
2023-03-31T01:06:52.360Z,101038.25
2023-03-31T01:09:20.234Z,101041.16
2023-03-31T01:11:48.526Z,101036.31
2023-03-31T01:14:16.977Z,101032.94
2023-03-31T01:16:45.577Z,101031.66
2023-03-31T01:19:36.525Z,101021.72
2023-03-31T01:22:28.636Z,101020.13
2023-03-31T01:25:14.421Z,101015.63
2023-03-31T01:28:12.923Z,101010.34
2023-03-31T01:31:16.768Z,101008.06
2023-03-31T01:34:21.608Z,101004.41
2023-03-31T01:37:29.891Z,100999.91
2023-03-31T01:40:15.975Z,101005.53
2023-03-31T01:42:56.958Z,101008.56
2023-03-31T01:45:52.142Z,101008.41
2023-03-31T01:48:30.177Z,101005.84
2023-03-31T01:51:17.825Z,101002.78
2023-03-31T01:53:55.568Z,100999.72
2023-03-31T01:56:33.098Z,100997.50
2023-03-31T01:59:06.545Z,100985.78
2023-03-31T02:01:39.784Z,100982.09
2023-03-31T02:04:22.124Z,100971.53
2023-03-31T02:06:58.118Z,100958.88
2023-03-31T02:09:33.461Z,100962.06
2023-03-31T02:12:08.979Z,100970.41
2023-03-31T02:14:43.675Z,100975.53
2023-03-31T02:17:18.146Z,100970.56
2023-03-31T02:19:51.754Z,100964.00
2023-03-31T02:22:22.050Z,100942.19
2023-03-31T02:24:52.418Z,100947.94
2023-03-31T02:27:26.666Z,100953.72
2023-03-31T02:29:55.515Z,100958.88
2023-03-31T02:32:33.024Z,100961.88
2023-03-31T02:35:01.339Z,100963.34
2023-03-31T02:37:30.516Z,100949.25
2023-03-31T02:40:01.483Z,100959.03
2023-03-31T02:42:29.317Z,100957.41
2023-03-31T02:45:06.108Z,100955.34
2023-03-31T02:47:34.605Z,100950.34
2023-03-31T02:50:04.079Z,100954.84
2023-03-31T02:52:52.030Z,100953.56
2023-03-31T02:55:23.869Z,100955.78
2023-03-31T02:58:05.543Z,100959.84
2023-03-31T03:00:55.308Z,100952.75
2023-03-31T03:03:29.304Z,100958.69
2023-03-31T03:06:23.674Z,100960.63
2023-03-31T03:09:26.454Z,100968.63
2023-03-31T03:12:08.824Z,100951.00
2023-03-31T03:14:42.046Z,100943.94
2023-03-31T03:17:21.414Z,100942.34
2023-03-31T03:19:58.770Z,100942.34
2023-03-31T03:22:26.078Z,100937.84
2023-03-31T03:24:53.598Z,100924.38
2023-03-31T03:27:24.289Z,100931.94
2023-03-31T03:29:51.757Z,100917.97
2023-03-31T03:32:19.075Z,100914.63
2023-03-31T03:34:46.432Z,100922.28
2023-03-31T03:37:13.826Z,100929.19
2023-03-31T03:39:41.222Z,100926.31
2023-03-31T03:42:08.555Z,100913.94
2023-03-31T03:44:35.907Z,100914.63
2023-03-31T03:47:03.507Z,100916.53
2023-03-31T03:49:30.854Z,100916.53
2023-03-31T03:51:58.120Z,100913.78
2023-03-31T03:54:25.556Z,100903.53
2023-03-31T03:56:52.992Z,100902.41
2023-03-31T03:59:20.355Z,100898.91
2023-03-31T04:01:47.621Z,100887.53
2023-03-31T04:04:15.335Z,100892.81
2023-03-31T04:06:43.416Z,100897.63
2023-03-31T04:09:11.304Z,100901.00
2023-03-31T04:11:38.607Z,100895.22
2023-03-31T04:14:06.039Z,100905.00
2023-03-31T04:16:34.513Z,100905.66
2023-03-31T04:19:04.671Z,100901.97
2023-03-31T04:21:34.885Z,100904.97
2023-03-31T04:24:04.625Z,100905.16
2023-03-31T04:26:43.683Z,100909.47
2023-03-31T04:29:12.977Z,100896.50
2023-03-31T04:31:44.262Z,100894.88
2023-03-31T04:34:14.362Z,100903.56
2023-03-31T04:36:52.278Z,100901.28
2023-03-31T04:39:27.012Z,100889.91
2023-03-31T04:41:54.482Z,100885.44
2023-03-31T04:44:21.890Z,100876.75
2023-03-31T04:46:49.509Z,100876.47
2023-03-31T04:49:16.934Z,100875.94
2023-03-31T04:51:44.945Z,100872.09
2023-03-31T04:54:12.570Z,100876.75
2023-03-31T04:56:40.020Z,100891.53
2023-03-31T04:59:08.500Z,100883.66
2023-03-31T05:01:36.534Z,100874.19
2023-03-31T05:04:05.359Z,100888.31
2023-03-31T05:06:33.035Z,100901.00
2023-03-31T05:09:00.668Z,100895.53
2023-03-31T05:11:29.010Z,100877.09
2023-03-31T05:13:56.676Z,100871.13
2023-03-31T05:16:24.093Z,100875.47
2023-03-31T05:18:51.461Z,100875.16
2023-03-31T05:21:20.762Z,100872.78
2023-03-31T05:23:48.368Z,100867.44
2023-03-31T05:26:15.965Z,100872.44
2023-03-31T05:28:43.486Z,100866.34
2023-03-31T05:31:13.126Z,100854.50
2023-03-31T05:33:41.835Z,100851.94
2023-03-31T05:36:11.848Z,100854.66
2023-03-31T05:38:40.265Z,100848.88
2023-03-31T05:41:09.614Z,100839.44
2023-03-31T05:43:39.072Z,100849.66
2023-03-31T05:46:07.098Z,100851.25
2023-03-31T05:48:35.467Z,100850.00
2023-03-31T05:51:03.055Z,100867.28
2023-03-31T05:53:30.768Z,100867.16
2023-03-31T05:56:02.968Z,100865.38
2023-03-31T05:58:31.031Z,100873.22
2023-03-31T06:01:02.891Z,100850.13
2023-03-31T06:03:30.271Z,100843.06
2023-03-31T06:05:57.679Z,100846.94
2023-03-31T06:08:25.045Z,100847.09
2023-03-31T06:10:52.445Z,100844.19
2023-03-31T06:13:19.992Z,100847.09
2023-03-31T06:15:58.287Z,100853.19
2023-03-31T06:18:28.776Z,100849.19
2023-03-31T06:20:56.770Z,100840.34
2023-03-31T06:23:25.230Z,100840.97
2023-03-31T06:25:53.450Z,100829.78
2023-03-31T06:28:21.516Z,100832.16
2023-03-31T06:30:48.915Z,100820.59
2023-03-31T06:33:16.674Z,100816.94
2023-03-31T06:35:44.111Z,100815.66
2023-03-31T06:38:11.406Z,100815.81
2023-03-31T06:40:38.689Z,100806.81
2023-03-31T06:43:06.105Z,100801.31
2023-03-31T06:45:33.468Z,100799.41
2023-03-31T06:48:00.903Z,100794.94
2023-03-31T06:50:28.280Z,100795.56
2023-03-31T06:52:55.960Z,100796.38
2023-03-31T06:55:23.404Z,100795.03
2023-03-31T06:57:51.062Z,100788.47
2023-03-31T07:00:21.460Z,100779.94
2023-03-31T07:02:50.615Z,100791.00
2023-03-31T07:05:18.566Z,100794.34
2023-03-31T07:07:46.456Z,100790.19
2023-03-31T07:10:13.899Z,100781.06
2023-03-31T07:12:41.640Z,100774.63
2023-03-31T07:15:09.407Z,100757.28
2023-03-31T07:17:37.600Z,100763.34
2023-03-31T07:20:10.216Z,100768.56
2023-03-31T07:22:37.652Z,100766.59
2023-03-31T07:25:05.579Z,100768.72
2023-03-31T07:27:32.848Z,100772.13
2023-03-31T07:30:00.418Z,100774.91
2023-03-31T07:32:29.138Z,100776.84
2023-03-31T07:34:56.754Z,100759.97
2023-03-31T07:37:24.101Z,100759.63
2023-03-31T07:39:51.809Z,100763.31
2023-03-31T07:42:19.089Z,100768.47
2023-03-31T07:44:46.497Z,100757.44
2023-03-31T07:47:14.261Z,100762.69
2023-03-31T07:49:41.548Z,100769.94
2023-03-31T07:52:08.894Z,100763.38
2023-03-31T07:54:36.298Z,100758.53
2023-03-31T07:57:06.257Z,100739.69
2023-03-31T07:59:34.006Z,100738.34
2023-03-31T08:02:01.720Z,100737.22
2023-03-31T08:04:29.299Z,100724.47
2023-03-31T08:06:56.640Z,100736.22
2023-03-31T08:09:24.019Z,100749.28
2023-03-31T08:11:51.353Z,100743.97
2023-03-31T08:14:27.160Z,100745.81
2023-03-31T08:17:01.824Z,100743.47
2023-03-31T08:19:29.198Z,100740.69
2023-03-31T08:21:56.502Z,100747.25
2023-03-31T08:24:24.011Z,100742.00
2023-03-31T08:26:51.410Z,100729.69
2023-03-31T08:29:18.828Z,100720.38
2023-03-31T08:31:46.148Z,100727.34
2023-03-31T08:34:13.744Z,100739.22
2023-03-31T08:36:41.228Z,100730.53
2023-03-31T08:39:08.868Z,100730.66
2023-03-31T08:42:02.578Z,100735.88
2023-03-31T08:44:36.914Z,100720.13
2023-03-31T08:47:07.634Z,100713.56
2023-03-31T08:49:45.803Z,100703.44
2023-03-31T08:52:17.365Z,100707.19
2023-03-31T08:54:49.432Z,100695.69
2023-03-31T08:57:20.593Z,100697.50
2023-03-31T08:59:47.891Z,100704.34
2023-03-31T09:02:18.827Z,100711.75
2023-03-31T09:05:08.523Z,100719.03
2023-03-31T09:07:42.643Z,100719.97
2023-03-31T09:10:13.054Z,100719.53
2023-03-31T09:12:51.980Z,100724.56
2023-03-31T09:15:25.702Z,100721.50
2023-03-31T09:17:57.986Z,100727.94
2023-03-31T09:20:36.843Z,100724.69
2023-03-31T09:23:32.065Z,100705.13
2023-03-31T09:26:02.671Z,100687.63
2023-03-31T09:28:40.099Z,100682.59
2023-03-31T09:31:19.683Z,100675.03
2023-03-31T09:33:51.518Z,100664.09
2023-03-31T09:36:23.809Z,100670.16
2023-03-31T09:38:51.622Z,100666.03
2023-03-31T09:41:19.851Z,100658.97
2023-03-31T09:43:49.525Z,100659.09
2023-03-31T09:46:24.824Z,100652.16
2023-03-31T09:49:02.330Z,100656.69
2023-03-31T09:51:34.635Z,100662.28
2023-03-31T09:54:12.895Z,100653.97
2023-03-31T09:56:43.036Z,100652.72
2023-03-31T09:59:17.622Z,100635.72
2023-03-31T10:01:47.823Z,100631.41
2023-03-31T10:04:24.438Z,100623.78
2023-03-31T10:06:53.714Z,100621.16
2023-03-31T10:09:25.027Z,100608.72
2023-03-31T10:12:02.582Z,100599.84
2023-03-31T10:14:50.073Z,100590.97
2023-03-31T10:17:23.424Z,100594.69
2023-03-31T10:19:52.778Z,100593.06
2023-03-31T10:22:22.846Z,100589.31
2023-03-31T10:24:52.154Z,100595.44
2023-03-31T10:27:25.935Z,100585.84
2023-03-31T10:29:58.749Z,100576.31
2023-03-31T10:32:30.629Z,100584.34
2023-03-31T10:35:03.858Z,100575.03
2023-03-31T10:37:31.903Z,100579.69
2023-03-31T10:40:02.000Z,100589.09
2023-03-31T10:42:29.444Z,100590.03
2023-03-31T10:45:36.517Z,100583.44
2023-03-31T10:48:07.124Z,100580.19
2023-03-31T10:50:36.796Z,100582.84
2023-03-31T10:53:13.424Z,100571.72
2023-03-31T10:56:05.003Z,100564.00
2023-03-31T10:59:04.684Z,100552.13
2023-03-31T11:01:59.766Z,100538.88
2023-03-31T11:04:47.157Z,100534.13
2023-03-31T11:07:38.489Z,100522.19
2023-03-31T11:10:42.949Z,100503.56
2023-03-31T11:13:28.789Z,100499.16
2023-03-31T11:16:33.936Z,100489.00
2023-03-31T11:19:19.605Z,100489.19
2023-03-31T11:22:06.199Z,100476.72
2023-03-31T11:24:47.518Z,100475.47
2023-03-31T11:27:35.717Z,100458.91
2023-03-31T11:30:08.565Z,100448.41
2023-03-31T11:33:02.381Z,100444.56
2023-03-31T11:35:54.517Z,100444.50
2023-03-31T11:38:30.799Z,100445.56
2023-03-31T11:41:11.464Z,100423.72
2023-03-31T11:43:48.884Z,100413.38
2023-03-31T11:46:22.429Z,100400.69
2023-03-31T11:48:58.347Z,100402.09
2023-03-31T11:51:44.269Z,100387.25
2023-03-31T11:54:30.371Z,100384.69
2023-03-31T11:57:01.352Z,100378.22
2023-03-31T11:59:31.951Z,100371.25
2023-03-31T12:02:20.622Z,100359.16
2023-03-31T12:04:52.894Z,100356.72
2023-03-31T12:07:31.505Z,100348.84
2023-03-31T12:10:12.927Z,100345.78
2023-03-31T12:12:45.572Z,100337.91
2023-03-31T12:15:32.432Z,100338.03
2023-03-31T12:18:09.116Z,100335.13
2023-03-31T12:20:41.503Z,100339.91
2023-03-31T12:23:17.332Z,100331.38
2023-03-31T12:25:52.204Z,100314.59
2023-03-31T12:28:20.032Z,100306.38
2023-03-31T12:30:49.083Z,100307.22
2023-03-31T12:33:30.071Z,100305.88
2023-03-31T12:36:25.456Z,100290.47
2023-03-31T12:39:28.944Z,100288.47
2023-03-31T12:42:35.497Z,100270.78
2023-03-31T12:45:05.927Z,100271.22
2023-03-31T12:47:49.879Z,100266.00
2023-03-31T12:50:44.356Z,100266.38
2023-03-31T12:53:35.950Z,100251.28
2023-03-31T12:56:03.484Z,100257.22
2023-03-31T12:58:32.906Z,100253.53
2023-03-31T13:01:19.174Z,100245.28
2023-03-31T13:03:51.484Z,100239.03
2023-03-31T13:06:28.294Z,100235.44
2023-03-31T13:09:00.912Z,100225.25
2023-03-31T13:11:31.323Z,100214.38
2023-03-31T13:14:15.801Z,100207.97
2023-03-31T13:16:43.576Z,100205.03
2023-03-31T13:19:27.352Z,100204.16
2023-03-31T13:21:57.662Z,100186.38
2023-03-31T13:24:26.774Z,100186.56
2023-03-31T13:26:59.733Z,100167.16
2023-03-31T13:29:42.301Z,100183.75
2023-03-31T13:32:12.604Z,100176.63
2023-03-31T13:34:44.357Z,100174.94
2023-03-31T13:37:18.810Z,100169.09
2023-03-31T13:39:58.323Z,100167.91
2023-03-31T13:42:26.040Z,100158.63
2023-03-31T13:45:28.883Z,100143.09
2023-03-31T13:48:03.362Z,100138.56
2023-03-31T13:51:09.061Z,100129.16
2023-03-31T13:54:13.988Z,100121.97
2023-03-31T13:57:18.584Z,100127.63
2023-03-31T14:00:14.389Z,100118.16
2023-03-31T14:02:57.006Z,100119.06
2023-03-31T14:05:30.877Z,100119.84
2023-03-31T14:08:03.644Z,100115.66
2023-03-31T14:10:37.223Z,100112.56
2023-03-31T14:13:25.985Z,100103.81
2023-03-31T14:15:59.380Z,100094.81
2023-03-31T14:18:29.794Z,100094.78
2023-03-31T14:21:06.411Z,100091.53
2023-03-31T14:23:49.081Z,100090.53
2023-03-31T14:26:33.260Z,100071.97
2023-03-31T14:29:13.739Z,100072.78
2023-03-31T14:31:43.833Z,100070.56
2023-03-31T14:34:30.770Z,100068.84
2023-03-31T14:37:08.318Z,100059.72
2023-03-31T14:39:41.343Z,100051.44
2023-03-31T14:42:14.558Z,100051.47
2023-03-31T14:44:46.903Z,100044.28
2023-03-31T14:47:23.552Z,100032.22
2023-03-31T14:50:12.805Z,100012.25
2023-03-31T14:52:40.989Z,100012.16
2023-03-31T14:55:15.420Z,100008.63
2023-03-31T14:57:46.403Z,100002.69
2023-03-31T15:00:30.816Z,100004.97
2023-03-31T15:03:01.223Z,99990.50
2023-03-31T15:05:32.907Z,99990.75
2023-03-31T15:08:08.043Z,99987.06
2023-03-31T15:10:42.772Z,99988.34
2023-03-31T15:13:15.454Z,99969.09
2023-03-31T15:15:45.637Z,99966.88
2023-03-31T15:18:15.711Z,99960.88
2023-03-31T15:20:44.600Z,99964.41
2023-03-31T15:23:28.631Z,99971.31
2023-03-31T15:26:01.317Z,99974.34
2023-03-31T15:28:33.564Z,99976.22
2023-03-31T15:31:10.116Z,99979.25
2023-03-31T15:33:42.081Z,99982.00
2023-03-31T15:36:11.938Z,99979.47
2023-03-31T15:38:39.801Z,99982.19
2023-03-31T15:41:16.770Z,99978.16
2023-03-31T15:44:04.812Z,99965.94
2023-03-31T15:46:38.192Z,99963.53
2023-03-31T15:49:18.518Z,99961.16
2023-03-31T15:51:47.538Z,99958.38
2023-03-31T15:54:32.884Z,99965.50
2023-03-31T15:57:02.770Z,99959.22
2023-03-31T15:59:41.829Z,99962.69
2023-03-31T16:02:22.974Z,99953.16
2023-03-31T16:04:54.402Z,99959.44
2023-03-31T16:07:27.083Z,99964.19
2023-03-31T16:10:18.499Z,99964.88
2023-03-31T16:13:01.750Z,99951.84
2023-03-31T16:15:38.350Z,99952.75
2023-03-31T16:18:11.092Z,99944.47
2023-03-31T16:21:01.910Z,99954.22
2023-03-31T16:23:32.665Z,99956.22
2023-03-31T16:26:01.023Z,99953.47
2023-03-31T16:28:34.978Z,99949.16
2023-03-31T16:31:03.628Z,99954.16
2023-03-31T16:33:51.575Z,99953.44
2023-03-31T16:36:18.894Z,99944.13
2023-03-31T16:38:46.954Z,99941.09
2023-03-31T16:41:17.345Z,99942.69
2023-03-31T16:43:45.731Z,99938.88
2023-03-31T16:46:13.183Z,99933.25
2023-03-31T16:48:40.718Z,99929.34
2023-03-31T16:51:08.058Z,99939.44
2023-03-31T16:53:37.041Z,99937.88
2023-03-31T16:56:08.151Z,99941.38
2023-03-31T16:58:37.751Z,99916.72
2023-03-31T17:01:07.446Z,99906.41
2023-03-31T17:03:37.166Z,99895.78
2023-03-31T17:06:08.005Z,99888.19
2023-03-31T17:08:35.490Z,99899.19
2023-03-31T17:11:07.092Z,99888.69
2023-03-31T17:13:34.595Z,99878.41
2023-03-31T17:16:16.410Z,99868.22
2023-03-31T17:18:46.412Z,99865.19
2023-03-31T17:21:15.724Z,99868.50
2023-03-31T17:23:43.345Z,99881.63
2023-03-31T17:26:12.913Z,99889.31
2023-03-31T17:28:41.078Z,99883.38
2023-03-31T17:31:16.740Z,99880.56
2023-03-31T17:33:44.731Z,99884.44
2023-03-31T17:36:12.528Z,99873.72
2023-03-31T17:38:40.212Z,99875.63
2023-03-31T17:41:10.636Z,99875.84
2023-03-31T17:43:38.205Z,99878.47
2023-03-31T17:46:09.920Z,99869.72
2023-03-31T17:48:39.196Z,99872.78
2023-03-31T17:51:17.597Z,99870.75
2023-03-31T17:53:46.663Z,99864.47
2023-03-31T17:56:14.999Z,99865.72
2023-03-31T17:58:42.557Z,99869.81
2023-03-31T18:01:11.893Z,99866.88
2023-03-31T18:03:39.412Z,99867.09
2023-03-31T18:06:12.510Z,99879.13
2023-03-31T18:08:41.570Z,99878.63
2023-03-31T18:11:10.122Z,99879.25
2023-03-31T18:13:37.900Z,99880.38
2023-03-31T18:16:09.580Z,99885.38
2023-03-31T18:18:37.872Z,99888.56
2023-03-31T18:21:07.730Z,99887.75
2023-03-31T18:23:36.160Z,99889.13
2023-03-31T18:26:11.766Z,99889.94
2023-03-31T18:28:43.054Z,99895.69
2023-03-31T18:31:11.535Z,99898.34
2023-03-31T18:33:39.567Z,99899.38
2023-03-31T18:36:08.358Z,99894.47
2023-03-31T18:38:37.012Z,99895.91
2023-03-31T18:41:05.131Z,99892.59
2023-03-31T18:43:33.368Z,99895.22
2023-03-31T18:46:01.867Z,99891.00
2023-03-31T18:48:29.669Z,99893.22
2023-03-31T18:51:00.132Z,99898.16
2023-03-31T18:53:27.979Z,99891.41
2023-03-31T18:55:57.842Z,99879.69
2023-03-31T18:58:27.862Z,99884.78
2023-03-31T19:00:56.467Z,99891.31
2023-03-31T19:03:24.035Z,99886.03
2023-03-31T19:05:51.407Z,99883.81
2023-03-31T19:08:18.831Z,99883.38
2023-03-31T19:10:46.087Z,99877.91
2023-03-31T19:13:16.399Z,99875.59
2023-03-31T19:15:43.800Z,99870.94
2023-03-31T19:18:14.894Z,99878.25
2023-03-31T19:20:42.194Z,99877.03
2023-03-31T19:23:09.569Z,99874.22
2023-03-31T19:25:36.996Z,99870.34
2023-03-31T19:28:04.396Z,99866.13
2023-03-31T19:30:31.846Z,99858.72
2023-03-31T19:33:01.824Z,99861.16
2023-03-31T19:35:30.269Z,99868.56
2023-03-31T19:37:57.944Z,99866.22
2023-03-31T19:40:25.389Z,99862.59
2023-03-31T19:42:52.779Z,99865.25
2023-03-31T19:45:20.189Z,99872.28
2023-03-31T19:47:47.643Z,99862.28
2023-03-31T19:50:15.592Z,99854.88
2023-03-31T19:52:46.855Z,99852.16
2023-03-31T19:55:16.793Z,99847.09
2023-03-31T19:57:44.157Z,99850.47
2023-03-31T20:00:12.526Z,99864.41
2023-03-31T20:02:40.065Z,99861.59
2023-03-31T20:05:07.890Z,99863.53
2023-03-31T20:07:35.251Z,99852.00
2023-03-31T20:10:02.594Z,99851.22
2023-03-31T20:12:30.021Z,99845.16
2023-03-31T20:14:57.298Z,99844.03
2023-03-31T20:17:24.668Z,99841.84
2023-03-31T20:19:51.986Z,99831.25
2023-03-31T20:22:19.495Z,99835.41
2023-03-31T20:24:47.025Z,99823.88
2023-03-31T20:27:14.543Z,99831.28
2023-03-31T20:29:41.896Z,99837.88
2023-03-31T20:32:09.861Z,99838.66
2023-03-31T20:34:37.435Z,99839.56
2023-03-31T20:37:04.824Z,99826.34
2023-03-31T20:39:32.219Z,99829.44
2023-03-31T20:41:59.590Z,99821.59
2023-03-31T20:44:27.037Z,99819.22
2023-03-31T20:46:56.016Z,99827.31
2023-03-31T20:49:23.446Z,99837.09
2023-03-31T20:51:51.028Z,99836.63
2023-03-31T20:54:18.332Z,99832.16
2023-03-31T20:56:45.899Z,99830.13
2023-03-31T20:59:15.444Z,99839.81
2023-03-31T21:01:45.234Z,99839.72
2023-03-31T21:04:13.405Z,99828.72
2023-03-31T21:06:46.168Z,99838.81
2023-03-31T21:09:14.959Z,99841.03
2023-03-31T21:11:42.448Z,99838.41
2023-03-31T21:14:14.970Z,99839.44
2023-03-31T21:16:42.840Z,99840.50
2023-03-31T21:19:10.806Z,99835.94
2023-03-31T21:21:41.113Z,99832.31
2023-03-31T21:24:11.552Z,99827.31
2023-03-31T21:26:39.954Z,99824.22
2023-03-31T21:29:07.266Z,99811.66
2023-03-31T21:31:34.834Z,99809.28
2023-03-31T21:34:03.351Z,99804.13
2023-03-31T21:36:30.890Z,99796.75
2023-03-31T21:38:58.252Z,99789.72
2023-03-31T21:41:30.496Z,99790.34
2023-03-31T21:44:01.724Z,99787.81
2023-03-31T21:46:31.830Z,99784.47
2023-03-31T21:48:59.423Z,99775.28
2023-03-31T21:51:27.086Z,99766.59
2023-03-31T21:53:55.667Z,99759.13
2023-03-31T21:56:24.620Z,99764.31
2023-03-31T21:58:52.235Z,99765.81
2023-03-31T22:01:20.497Z,99760.63
2023-03-31T22:03:48.863Z,99756.06
2023-03-31T22:06:16.691Z,99765.97
2023-03-31T22:08:44.220Z,99766.25
2023-03-31T22:11:12.505Z,99756.56
2023-03-31T22:13:39.993Z,99755.00
2023-03-31T22:16:16.221Z,99758.00
2023-03-31T22:18:44.164Z,99748.47
2023-03-31T22:21:19.772Z,99749.53
2023-03-31T22:23:47.386Z,99748.84
2023-03-31T22:26:14.785Z,99756.66
2023-03-31T22:28:42.168Z,99762.72
2023-03-31T22:31:09.622Z,99768.53
2023-03-31T22:33:37.118Z,99765.53
2023-03-31T22:36:04.805Z,99763.50
2023-03-31T22:38:32.149Z,99764.13
2023-03-31T22:40:59.569Z,99768.16
2023-03-31T22:43:27.234Z,99772.84
2023-03-31T22:45:54.677Z,99773.16
2023-03-31T22:48:22.744Z,99771.72
2023-03-31T22:50:50.200Z,99786.13
2023-03-31T22:53:17.739Z,99780.69
2023-03-31T22:55:54.301Z,99780.31
2023-03-31T22:58:22.761Z,99775.44
2023-03-31T23:00:57.895Z,99775.19
2023-03-31T23:03:27.147Z,99772.47
2023-03-31T23:05:54.593Z,99765.81
2023-03-31T23:08:22.677Z,99769.56
2023-03-31T23:10:57.879Z,99776.38
2023-03-31T23:13:26.682Z,99762.78
2023-03-31T23:15:54.866Z,99768.63
2023-03-31T23:18:22.670Z,99756.63
2023-03-31T23:20:50.467Z,99750.44
2023-03-31T23:23:18.273Z,99750.44
2023-03-31T23:25:45.864Z,99750.09
2023-03-31T23:28:13.571Z,99748.53
2023-03-31T23:30:41.296Z,99753.19
2023-03-31T23:33:09.056Z,99747.50
2023-03-31T23:35:36.679Z,99735.81
2023-03-31T23:38:04.208Z,99736.84
2023-03-31T23:40:31.844Z,99732.59
2023-03-31T23:42:59.173Z,99735.38
2023-03-31T23:45:26.597Z,99730.16
2023-03-31T23:47:53.945Z,99724.09
2023-03-31T23:50:23.212Z,99722.50
2023-03-31T23:52:50.615Z,99726.91
2023-03-31T23:55:18.320Z,99721.44
2023-03-31T23:57:45.734Z,99721.69
